sensor_id;sensor_type;location;lat;lon;timestamp;P1;P2;P0
46240;PMS5003;31961;52.416;-0.732;2022-07-26T00:02:13;4;3;
46240;PMS5003;31961;52.416;-0.732;2022-07-26T00:04:40;4;4;
46240;PMS5003;31961;52.416;-0.732;2022-07-26T00:07:08;6;5;
46240;PMS5003;31961;52.416;-0.732;2022-07-26T00:09:35;4;4;
46240;PMS5003;31961;52.416;-0.732;2022-07-26T00:12:03;6;4;
46240;PMS5003;31961;52.416;-0.732;2022-07-26T00:14:31;6;4;
46240;PMS5003;31961;52.416;-0.732;2022-07-26T00:16:58;4;4;
46240;PMS5003;31961;52.416;-0.732;2022-07-26T00:19:26;4;4;
46240;PMS5003;31961;52.416;-0.732;2022-07-26T00:21:53;6;5;
46240;PMS5003;31961;52.416;-0.732;2022-07-26T00:24:21;5;5;
46240;PMS5003;31961;52.416;-0.732;2022-07-26T00:26:48;6;3;
46240;PMS5003;31961;52.416;-0.732;2022-07-26T00:29:15;7;5;
46240;PMS5003;31961;52.416;-0.732;2022-07-26T00:31:42;5;5;
46240;PMS5003;31961;52.416;-0.732;2022-07-26T00:34:09;4;4;
46240;PMS5003;31961;52.416;-0.732;2022-07-26T00:36:36;6;6;
46240;PMS5003;31961;52.416;-0.732;2022-07-26T00:39:03;6;6;
46240;PMS5003;31961;52.416;-0.732;2022-07-26T00:41:30;6;6;
46240;PMS5003;31961;52.416;-0.732;2022-07-26T00:43:57;5;5;
46240;PMS5003;31961;52.416;-0.732;2022-07-26T00:46:25;7;5;
46240;PMS5003;31961;52.416;-0.732;2022-07-26T00:48:52;6;6;
46240;PMS5003;31961;52.416;-0.732;2022-07-26T00:51:20;6;6;
46240;PMS5003;31961;52.416;-0.732;2022-07-26T00:53:47;6;5;
46240;PMS5003;31961;52.416;-0.732;2022-07-26T00:56:15;6;5;
46240;PMS5003;31961;52.416;-0.732;2022-07-26T00:58:44;6;5;
46240;PMS5003;31961;52.416;-0.732;2022-07-26T01:01:11;5;5;
46240;PMS5003;31961;52.416;-0.732;2022-07-26T01:03:39;6;6;
46240;PMS5003;31961;52.416;-0.732;2022-07-26T01:06:07;6;6;
46240;PMS5003;31961;52.416;-0.732;2022-07-26T01:08:34;6;6;
46240;PMS5003;31961;52.416;-0.732;2022-07-26T01:11:02;5;5;
46240;PMS5003;31961;52.416;-0.732;2022-07-26T01:13:29;8;5;
46240;PMS5003;31961;52.416;-0.732;2022-07-26T01:15:56;4;4;
46240;PMS5003;31961;52.416;-0.732;2022-07-26T01:18:24;2;2;
46240;PMS5003;31961;52.416;-0.732;2022-07-26T01:20:51;4;3;
46240;PMS5003;31961;52.416;-0.732;2022-07-26T01:23:20;3;3;
46240;PMS5003;31961;52.416;-0.732;2022-07-26T01:25:46;6;5;
46240;PMS5003;31961;52.416;-0.732;2022-07-26T01:28:14;4;4;
46240;PMS5003;31961;52.416;-0.732;2022-07-26T01:30:41;6;5;
46240;PMS5003;31961;52.416;-0.732;2022-07-26T01:33:09;6;5;
46240;PMS5003;31961;52.416;-0.732;2022-07-26T01:35:36;6;6;
46240;PMS5003;31961;52.416;-0.732;2022-07-26T01:38:04;7;6;
46240;PMS5003;31961;52.416;-0.732;2022-07-26T01:40:31;4;4;
46240;PMS5003;31961;52.416;-0.732;2022-07-26T01:42:59;5;5;
46240;PMS5003;31961;52.416;-0.732;2022-07-26T01:45:27;3;3;
46240;PMS5003;31961;52.416;-0.732;2022-07-26T01:47:56;4;3;
46240;PMS5003;31961;52.416;-0.732;2022-07-26T01:50:23;7;4;
46240;PMS5003;31961;52.416;-0.732;2022-07-26T01:52:51;4;4;
46240;PMS5003;31961;52.416;-0.732;2022-07-26T01:55:18;6;6;
46240;PMS5003;31961;52.416;-0.732;2022-07-26T01:57:45;5;4;
46240;PMS5003;31961;52.416;-0.732;2022-07-26T02:00:13;5;5;
46240;PMS5003;31961;52.416;-0.732;2022-07-26T02:02:41;4;4;
46240;PMS5003;31961;52.416;-0.732;2022-07-26T02:05:09;4;4;
46240;PMS5003;31961;52.416;-0.732;2022-07-26T02:07:37;8;3;
46240;PMS5003;31961;52.416;-0.732;2022-07-26T02:10:05;4;4;
46240;PMS5003;31961;52.416;-0.732;2022-07-26T02:12:34;5;5;
46240;PMS5003;31961;52.416;-0.732;2022-07-26T02:15:01;3;2;
46240;PMS5003;31961;52.416;-0.732;2022-07-26T02:17:29;5;4;
46240;PMS5003;31961;52.416;-0.732;2022-07-26T02:19:56;4;4;
46240;PMS5003;31961;52.416;-0.732;2022-07-26T02:22:24;4;4;
46240;PMS5003;31961;52.416;-0.732;2022-07-26T02:24:52;4;3;
46240;PMS5003;31961;52.416;-0.732;2022-07-26T02:27:19;4;4;
46240;PMS5003;31961;52.416;-0.732;2022-07-26T02:29:47;4;4;
46240;PMS5003;31961;52.416;-0.732;2022-07-26T02:32:14;7;4;
46240;PMS5003;31961;52.416;-0.732;2022-07-26T02:34:42;4;4;
46240;PMS5003;31961;52.416;-0.732;2022-07-26T02:37:09;3;3;
46240;PMS5003;31961;52.416;-0.732;2022-07-26T02:39:37;3;3;
46240;PMS5003;31961;52.416;-0.732;2022-07-26T02:42:05;4;3;
46240;PMS5003;31961;52.416;-0.732;2022-07-26T02:44:32;5;4;
46240;PMS5003;31961;52.416;-0.732;2022-07-26T02:47:00;4;3;
46240;PMS5003;31961;52.416;-0.732;2022-07-26T02:49:27;4;4;
46240;PMS5003;31961;52.416;-0.732;2022-07-26T02:51:55;3;3;
46240;PMS5003;31961;52.416;-0.732;2022-07-26T02:54:22;4;4;
46240;PMS5003;31961;52.416;-0.732;2022-07-26T02:56:50;3;3;
46240;PMS5003;31961;52.416;-0.732;2022-07-26T02:59:17;2;2;
46240;PMS5003;31961;52.416;-0.732;2022-07-26T03:01:45;3;3;
46240;PMS5003;31961;52.416;-0.732;2022-07-26T03:04:13;5;3;
46240;PMS5003;31961;52.416;-0.732;2022-07-26T03:06:40;4;3;
46240;PMS5003;31961;52.416;-0.732;2022-07-26T03:09:08;3;3;
46240;PMS5003;31961;52.416;-0.732;2022-07-26T03:11:35;3;3;
46240;PMS5003;31961;52.416;-0.732;2022-07-26T03:14:03;3;3;
46240;PMS5003;31961;52.416;-0.732;2022-07-26T03:16:30;4;4;
46240;PMS5003;31961;52.416;-0.732;2022-07-26T03:18:58;4;3;
46240;PMS5003;31961;52.416;-0.732;2022-07-26T03:21:26;1;1;
46240;PMS5003;31961;52.416;-0.732;2022-07-26T03:23:54;4;4;
46240;PMS5003;31961;52.416;-0.732;2022-07-26T03:26:21;3;3;
46240;PMS5003;31961;52.416;-0.732;2022-07-26T03:28:49;5;3;
46240;PMS5003;31961;52.416;-0.732;2022-07-26T03:31:16;3;3;
46240;PMS5003;31961;52.416;-0.732;2022-07-26T03:33:44;6;6;
46240;PMS5003;31961;52.416;-0.732;2022-07-26T03:36:11;7;6;
46240;PMS5003;31961;52.416;-0.732;2022-07-26T03:38:39;3;3;
46240;PMS5003;31961;52.416;-0.732;2022-07-26T03:41:06;5;4;
46240;PMS5003;31961;52.416;-0.732;2022-07-26T03:43:34;4;4;
46240;PMS5003;31961;52.416;-0.732;2022-07-26T03:46:01;5;5;
46240;PMS5003;31961;52.416;-0.732;2022-07-26T03:48:29;5;5;
46240;PMS5003;31961;52.416;-0.732;2022-07-26T03:50:57;5;5;
46240;PMS5003;31961;52.416;-0.732;2022-07-26T03:53:24;3;3;
46240;PMS5003;31961;52.416;-0.732;2022-07-26T03:55:52;2;2;
46240;PMS5003;31961;52.416;-0.732;2022-07-26T03:58:19;4;4;
46240;PMS5003;31961;52.416;-0.732;2022-07-26T04:00:47;4;4;
46240;PMS5003;31961;52.416;-0.732;2022-07-26T04:03:14;5;5;
46240;PMS5003;31961;52.416;-0.732;2022-07-26T04:05:42;4;4;
46240;PMS5003;31961;52.416;-0.732;2022-07-26T04:08:09;4;4;
46240;PMS5003;31961;52.416;-0.732;2022-07-26T04:10:37;5;4;
46240;PMS5003;31961;52.416;-0.732;2022-07-26T04:13:04;7;5;
46240;PMS5003;31961;52.416;-0.732;2022-07-26T04:15:32;5;5;
46240;PMS5003;31961;52.416;-0.732;2022-07-26T04:18:00;7;4;
46240;PMS5003;31961;52.416;-0.732;2022-07-26T04:20:27;12;9;
46240;PMS5003;31961;52.416;-0.732;2022-07-26T04:22:55;8;7;
46240;PMS5003;31961;52.416;-0.732;2022-07-26T04:25:22;7;5;
46240;PMS5003;31961;52.416;-0.732;2022-07-26T04:27:50;6;5;
46240;PMS5003;31961;52.416;-0.732;2022-07-26T04:30:18;7;3;
46240;PMS5003;31961;52.416;-0.732;2022-07-26T04:32:45;5;4;
46240;PMS5003;31961;52.416;-0.732;2022-07-26T04:35:13;5;5;
46240;PMS5003;31961;52.416;-0.732;2022-07-26T04:37:41;7;6;
46240;PMS5003;31961;52.416;-0.732;2022-07-26T04:40:10;5;5;
46240;PMS5003;31961;52.416;-0.732;2022-07-26T04:42:44;5;5;
46240;PMS5003;31961;52.416;-0.732;2022-07-26T04:45:11;5;4;
46240;PMS5003;31961;52.416;-0.732;2022-07-26T04:47:40;8;6;
46240;PMS5003;31961;52.416;-0.732;2022-07-26T04:50:08;6;6;
46240;PMS5003;31961;52.416;-0.732;2022-07-26T04:52:35;9;7;
46240;PMS5003;31961;52.416;-0.732;2022-07-26T04:55:03;5;5;
46240;PMS5003;31961;52.416;-0.732;2022-07-26T04:57:31;5;4;
46240;PMS5003;31961;52.416;-0.732;2022-07-26T04:59:58;4;4;
46240;PMS5003;31961;52.416;-0.732;2022-07-26T05:02:26;5;5;
46240;PMS5003;31961;52.416;-0.732;2022-07-26T05:04:54;4;4;
46240;PMS5003;31961;52.416;-0.732;2022-07-26T05:07:21;4;4;
46240;PMS5003;31961;52.416;-0.732;2022-07-26T05:09:49;3;3;
46240;PMS5003;31961;52.416;-0.732;2022-07-26T05:12:16;4;4;
46240;PMS5003;31961;52.416;-0.732;2022-07-26T05:14:44;4;3;
46240;PMS5003;31961;52.416;-0.732;2022-07-26T05:17:20;4;4;
46240;PMS5003;31961;52.416;-0.732;2022-07-26T05:19:50;5;4;
46240;PMS5003;31961;52.416;-0.732;2022-07-26T05:22:18;3;3;
46240;PMS5003;31961;52.416;-0.732;2022-07-26T05:24:46;4;4;
46240;PMS5003;31961;52.416;-0.732;2022-07-26T05:27:14;4;3;
46240;PMS5003;31961;52.416;-0.732;2022-07-26T05:29:42;4;3;
46240;PMS5003;31961;52.416;-0.732;2022-07-26T05:32:10;2;2;
46240;PMS5003;31961;52.416;-0.732;2022-07-26T05:34:37;3;3;
46240;PMS5003;31961;52.416;-0.732;2022-07-26T05:37:05;4;4;
46240;PMS5003;31961;52.416;-0.732;2022-07-26T05:39:32;5;4;
46240;PMS5003;31961;52.416;-0.732;2022-07-26T05:42:00;4;3;
46240;PMS5003;31961;52.416;-0.732;2022-07-26T05:44:27;5;4;
46240;PMS5003;31961;52.416;-0.732;2022-07-26T05:46:55;2;2;
46240;PMS5003;31961;52.416;-0.732;2022-07-26T05:49:23;6;4;
46240;PMS5003;31961;52.416;-0.732;2022-07-26T05:51:50;2;2;
46240;PMS5003;31961;52.416;-0.732;2022-07-26T05:54:18;2;2;
46240;PMS5003;31961;52.416;-0.732;2022-07-26T05:56:45;5;2;
46240;PMS5003;31961;52.416;-0.732;2022-07-26T05:59:13;5;3;
46240;PMS5003;31961;52.416;-0.732;2022-07-26T06:01:40;2;2;
46240;PMS5003;31961;52.416;-0.732;2022-07-26T06:04:08;1;1;
46240;PMS5003;31961;52.416;-0.732;2022-07-26T06:06:36;6;4;
46240;PMS5003;31961;52.416;-0.732;2022-07-26T06:09:03;4;2;
46240;PMS5003;31961;52.416;-0.732;2022-07-26T06:11:31;7;4;
46240;PMS5003;31961;52.416;-0.732;2022-07-26T06:13:58;4;3;
46240;PMS5003;31961;52.416;-0.732;2022-07-26T06:16:26;3;3;
46240;PMS5003;31961;52.416;-0.732;2022-07-26T06:18:53;4;3;
46240;PMS5003;31961;52.416;-0.732;2022-07-26T06:21:21;6;4;
46240;PMS5003;31961;52.416;-0.732;2022-07-26T06:23:48;5;3;
46240;PMS5003;31961;52.416;-0.732;2022-07-26T06:26:15;2;2;
46240;PMS5003;31961;52.416;-0.732;2022-07-26T06:28:42;3;2;
46240;PMS5003;31961;52.416;-0.732;2022-07-26T06:31:10;2;2;
46240;PMS5003;31961;52.416;-0.732;2022-07-26T06:33:37;4;2;
46240;PMS5003;31961;52.416;-0.732;2022-07-26T06:36:05;2;2;
46240;PMS5003;31961;52.416;-0.732;2022-07-26T06:38:33;2;2;
46240;PMS5003;31961;52.416;-0.732;2022-07-26T06:41:00;4;4;
46240;PMS5003;31961;52.416;-0.732;2022-07-26T06:43:28;4;3;
46240;PMS5003;31961;52.416;-0.732;2022-07-26T06:45:55;5;4;
46240;PMS5003;31961;52.416;-0.732;2022-07-26T06:48:23;4;4;
46240;PMS5003;31961;52.416;-0.732;2022-07-26T06:50:50;5;4;
46240;PMS5003;31961;52.416;-0.732;2022-07-26T06:53:18;5;3;
46240;PMS5003;31961;52.416;-0.732;2022-07-26T06:55:45;2;2;
46240;PMS5003;31961;52.416;-0.732;2022-07-26T06:58:13;4;3;
46240;PMS5003;31961;52.416;-0.732;2022-07-26T07:00:41;2;2;
46240;PMS5003;31961;52.416;-0.732;2022-07-26T07:03:08;2;2;
46240;PMS5003;31961;52.416;-0.732;2022-07-26T07:05:36;2;2;
46240;PMS5003;31961;52.416;-0.732;2022-07-26T07:08:03;3;2;
46240;PMS5003;31961;52.416;-0.732;2022-07-26T07:10:31;3;2;
46240;PMS5003;31961;52.416;-0.732;2022-07-26T07:12:58;3;1;
46240;PMS5003;31961;52.416;-0.732;2022-07-26T07:15:26;4;4;
46240;PMS5003;31961;52.416;-0.732;2022-07-26T07:17:53;2;2;
46240;PMS5003;31961;52.416;-0.732;2022-07-26T07:20:21;3;3;
46240;PMS5003;31961;52.416;-0.732;2022-07-26T07:22:48;4;2;
46240;PMS5003;31961;52.416;-0.732;2022-07-26T07:25:16;3;2;
46240;PMS5003;31961;52.416;-0.732;2022-07-26T07:27:44;2;2;
46240;PMS5003;31961;52.416;-0.732;2022-07-26T07:30:11;2;2;
46240;PMS5003;31961;52.416;-0.732;2022-07-26T07:32:39;5;4;
46240;PMS5003;31961;52.416;-0.732;2022-07-26T07:35:07;2;2;
46240;PMS5003;31961;52.416;-0.732;2022-07-26T07:37:35;4;3;
46240;PMS5003;31961;52.416;-0.732;2022-07-26T07:40:04;4;3;
46240;PMS5003;31961;52.416;-0.732;2022-07-26T07:42:32;5;4;
46240;PMS5003;31961;52.416;-0.732;2022-07-26T07:44:59;3;2;
46240;PMS5003;31961;52.416;-0.732;2022-07-26T07:47:27;3;3;
46240;PMS5003;31961;52.416;-0.732;2022-07-26T07:49:54;4;2;
46240;PMS5003;31961;52.416;-0.732;2022-07-26T07:52:22;4;3;
46240;PMS5003;31961;52.416;-0.732;2022-07-26T07:54:49;2;2;
46240;PMS5003;31961;52.416;-0.732;2022-07-26T07:57:17;2;2;
46240;PMS5003;31961;52.416;-0.732;2022-07-26T07:59:44;3;2;
46240;PMS5003;31961;52.416;-0.732;2022-07-26T08:02:12;2;2;
46240;PMS5003;31961;52.416;-0.732;2022-07-26T08:04:39;3;3;
46240;PMS5003;31961;52.416;-0.732;2022-07-26T08:07:07;2;2;
46240;PMS5003;31961;52.416;-0.732;2022-07-26T08:09:35;5;2;
46240;PMS5003;31961;52.416;-0.732;2022-07-26T08:12:02;3;3;
46240;PMS5003;31961;52.416;-0.732;2022-07-26T08:14:30;3;3;
46240;PMS5003;31961;52.416;-0.732;2022-07-26T08:16:56;3;2;
46240;PMS5003;31961;52.416;-0.732;2022-07-26T08:19:24;1;1;
46240;PMS5003;31961;52.416;-0.732;2022-07-26T08:21:50;1;1;
46240;PMS5003;31961;52.416;-0.732;2022-07-26T08:24:18;3;2;
46240;PMS5003;31961;52.416;-0.732;2022-07-26T08:26:46;4;3;
46240;PMS5003;31961;52.416;-0.732;2022-07-26T08:29:13;3;3;
46240;PMS5003;31961;52.416;-0.732;2022-07-26T08:31:41;3;3;
46240;PMS5003;31961;52.416;-0.732;2022-07-26T08:34:08;3;2;
46240;PMS5003;31961;52.416;-0.732;2022-07-26T08:36:36;2;2;
46240;PMS5003;31961;52.416;-0.732;2022-07-26T08:39:03;2;2;
46240;PMS5003;31961;52.416;-0.732;2022-07-26T08:41:30;3;2;
46240;PMS5003;31961;52.416;-0.732;2022-07-26T08:44:03;3;2;
46240;PMS5003;31961;52.416;-0.732;2022-07-26T08:46:33;6;4;
46240;PMS5003;31961;52.416;-0.732;2022-07-26T08:49:02;5;5;
46240;PMS5003;31961;52.416;-0.732;2022-07-26T08:51:29;2;2;
46240;PMS5003;31961;52.416;-0.732;2022-07-26T08:53:58;2;2;
46240;PMS5003;31961;52.416;-0.732;2022-07-26T08:56:27;1;1;
46240;PMS5003;31961;52.416;-0.732;2022-07-26T08:58:55;2;2;
46240;PMS5003;31961;52.416;-0.732;2022-07-26T09:01:22;2;2;
46240;PMS5003;31961;52.416;-0.732;2022-07-26T09:03:49;2;2;
46240;PMS5003;31961;52.416;-0.732;2022-07-26T09:06:18;4;2;
46240;PMS5003;31961;52.416;-0.732;2022-07-26T09:08:48;2;2;
46240;PMS5003;31961;52.416;-0.732;2022-07-26T09:11:32;6;3;
46240;PMS5003;31961;52.416;-0.732;2022-07-26T09:14:00;2;2;
46240;PMS5003;31961;52.416;-0.732;2022-07-26T09:16:29;2;2;
46240;PMS5003;31961;52.416;-0.732;2022-07-26T09:19:12;2;2;
46240;PMS5003;31961;52.416;-0.732;2022-07-26T09:21:41;3;2;
46240;PMS5003;31961;52.416;-0.732;2022-07-26T09:24:09;1;1;
46240;PMS5003;31961;52.416;-0.732;2022-07-26T09:26:36;5;3;
46240;PMS5003;31961;52.416;-0.732;2022-07-26T09:29:04;6;4;
46240;PMS5003;31961;52.416;-0.732;2022-07-26T09:31:33;2;1;
46240;PMS5003;31961;52.416;-0.732;2022-07-26T09:34:02;4;2;
46240;PMS5003;31961;52.416;-0.732;2022-07-26T09:36:30;2;2;
46240;PMS5003;31961;52.416;-0.732;2022-07-26T09:38:59;1;1;
46240;PMS5003;31961;52.416;-0.732;2022-07-26T09:41:29;1;1;
46240;PMS5003;31961;52.416;-0.732;2022-07-26T09:43:59;3;2;
46240;PMS5003;31961;52.416;-0.732;2022-07-26T09:46:29;3;2;
46240;PMS5003;31961;52.416;-0.732;2022-07-26T09:48:58;2;2;
46240;PMS5003;31961;52.416;-0.732;2022-07-26T09:51:44;7;3;
46240;PMS5003;31961;52.416;-0.732;2022-07-26T09:54:16;2;1;
46240;PMS5003;31961;52.416;-0.732;2022-07-26T09:56:46;1;1;
46240;PMS5003;31961;52.416;-0.732;2022-07-26T09:59:15;2;2;
46240;PMS5003;31961;52.416;-0.732;2022-07-26T10:01:44;2;2;
46240;PMS5003;31961;52.416;-0.732;2022-07-26T10:04:12;2;2;
46240;PMS5003;31961;52.416;-0.732;2022-07-26T10:06:41;3;3;
46240;PMS5003;31961;52.416;-0.732;2022-07-26T10:09:08;4;2;
46240;PMS5003;31961;52.416;-0.732;2022-07-26T10:11:38;3;2;
46240;PMS5003;31961;52.416;-0.732;2022-07-26T10:14:41;4;3;
46240;PMS5003;31961;52.416;-0.732;2022-07-26T10:17:46;1;1;
46240;PMS5003;31961;52.416;-0.732;2022-07-26T10:20:47;3;3;
46240;PMS5003;31961;52.416;-0.732;2022-07-26T10:23:33;2;1;
46240;PMS5003;31961;52.416;-0.732;2022-07-26T10:26:03;2;2;
46240;PMS5003;31961;52.416;-0.732;2022-07-26T10:28:33;1;1;
46240;PMS5003;31961;52.416;-0.732;2022-07-26T10:31:35;2;1;
46240;PMS5003;31961;52.416;-0.732;2022-07-26T10:34:02;2;2;
46240;PMS5003;31961;52.416;-0.732;2022-07-26T10:36:30;3;2;
46240;PMS5003;31961;52.416;-0.732;2022-07-26T10:39:05;2;1;
46240;PMS5003;31961;52.416;-0.732;2022-07-26T10:41:36;1;1;
46240;PMS5003;31961;52.416;-0.732;2022-07-26T10:44:12;2;2;
46240;PMS5003;31961;52.416;-0.732;2022-07-26T10:47:01;3;2;
46240;PMS5003;31961;52.416;-0.732;2022-07-26T10:49:35;3;3;
46240;PMS5003;31961;52.416;-0.732;2022-07-26T10:52:05;3;2;
46240;PMS5003;31961;52.416;-0.732;2022-07-26T10:55:10;4;1;
46240;PMS5003;31961;52.416;-0.732;2022-07-26T10:57:38;4;3;
46240;PMS5003;31961;52.416;-0.732;2022-07-26T11:00:08;0;0;
46240;PMS5003;31961;52.416;-0.732;2022-07-26T11:02:37;2;2;
46240;PMS5003;31961;52.416;-0.732;2022-07-26T11:05:06;1;1;
46240;PMS5003;31961;52.416;-0.732;2022-07-26T11:07:42;2;2;
46240;PMS5003;31961;52.416;-0.732;2022-07-26T11:10:14;2;2;
46240;PMS5003;31961;52.416;-0.732;2022-07-26T11:12:42;0;0;
46240;PMS5003;31961;52.416;-0.732;2022-07-26T11:15:14;1;1;
46240;PMS5003;31961;52.416;-0.732;2022-07-26T11:17:41;3;2;
46240;PMS5003;31961;52.416;-0.732;2022-07-26T11:20:09;4;4;
46240;PMS5003;31961;52.416;-0.732;2022-07-26T11:22:36;2;2;
46240;PMS5003;31961;52.416;-0.732;2022-07-26T11:25:04;2;1;
46240;PMS5003;31961;52.416;-0.732;2022-07-26T11:27:32;5;3;
46240;PMS5003;31961;52.416;-0.732;2022-07-26T11:30:02;1;1;
46240;PMS5003;31961;52.416;-0.732;2022-07-26T11:32:29;1;1;
46240;PMS5003;31961;52.416;-0.732;2022-07-26T11:34:57;3;3;
46240;PMS5003;31961;52.416;-0.732;2022-07-26T11:37:25;1;1;
46240;PMS5003;31961;52.416;-0.732;2022-07-26T11:39:53;2;2;
46240;PMS5003;31961;52.416;-0.732;2022-07-26T11:42:20;2;1;
46240;PMS5003;31961;52.416;-0.732;2022-07-26T11:44:48;1;1;
46240;PMS5003;31961;52.416;-0.732;2022-07-26T11:47:16;1;1;
46240;PMS5003;31961;52.416;-0.732;2022-07-26T11:49:47;1;1;
46240;PMS5003;31961;52.416;-0.732;2022-07-26T11:52:15;3;3;
46240;PMS5003;31961;52.416;-0.732;2022-07-26T11:54:43;3;2;
46240;PMS5003;31961;52.416;-0.732;2022-07-26T11:57:13;2;2;
46240;PMS5003;31961;52.416;-0.732;2022-07-26T11:59:42;4;3;
46240;PMS5003;31961;52.416;-0.732;2022-07-26T12:02:12;3;2;
46240;PMS5003;31961;52.416;-0.732;2022-07-26T12:04:41;3;3;
46240;PMS5003;31961;52.416;-0.732;2022-07-26T12:07:09;4;3;
46240;PMS5003;31961;52.416;-0.732;2022-07-26T12:09:39;2;2;
46240;PMS5003;31961;52.416;-0.732;2022-07-26T12:12:08;3;3;
46240;PMS5003;31961;52.416;-0.732;2022-07-26T12:14:52;1;1;
46240;PMS5003;31961;52.416;-0.732;2022-07-26T12:17:22;3;2;
46240;PMS5003;31961;52.416;-0.732;2022-07-26T12:19:49;4;3;
46240;PMS5003;31961;52.416;-0.732;2022-07-26T12:22:17;2;2;
46240;PMS5003;31961;52.416;-0.732;2022-07-26T12:24:52;3;3;
46240;PMS5003;31961;52.416;-0.732;2022-07-26T12:27:22;3;2;
46240;PMS5003;31961;52.416;-0.732;2022-07-26T12:29:52;3;3;
46240;PMS5003;31961;52.416;-0.732;2022-07-26T12:32:21;2;2;
46240;PMS5003;31961;52.416;-0.732;2022-07-26T12:34:54;3;3;
46240;PMS5003;31961;52.416;-0.732;2022-07-26T12:37:23;4;4;
46240;PMS5003;31961;52.416;-0.732;2022-07-26T12:40:08;3;3;
46240;PMS5003;31961;52.416;-0.732;2022-07-26T12:42:38;3;2;
46240;PMS5003;31961;52.416;-0.732;2022-07-26T12:45:07;3;2;
46240;PMS5003;31961;52.416;-0.732;2022-07-26T12:47:36;3;3;
46240;PMS5003;31961;52.416;-0.732;2022-07-26T12:50:05;5;4;
46240;PMS5003;31961;52.416;-0.732;2022-07-26T12:52:34;3;3;
46240;PMS5003;31961;52.416;-0.732;2022-07-26T12:55:03;4;3;
46240;PMS5003;31961;52.416;-0.732;2022-07-26T12:57:32;4;3;
46240;PMS5003;31961;52.416;-0.732;2022-07-26T13:00:00;2;2;
46240;PMS5003;31961;52.416;-0.732;2022-07-26T13:02:27;1;1;
46240;PMS5003;31961;52.416;-0.732;2022-07-26T13:04:55;5;2;
46240;PMS5003;31961;52.416;-0.732;2022-07-26T13:07:22;4;4;
46240;PMS5003;31961;52.416;-0.732;2022-07-26T13:09:50;4;4;
46240;PMS5003;31961;52.416;-0.732;2022-07-26T13:12:17;4;4;
46240;PMS5003;31961;52.416;-0.732;2022-07-26T13:14:45;3;3;
46240;PMS5003;31961;52.416;-0.732;2022-07-26T13:17:12;5;3;
46240;PMS5003;31961;52.416;-0.732;2022-07-26T13:19:40;5;4;
46240;PMS5003;31961;52.416;-0.732;2022-07-26T13:22:07;6;5;
46240;PMS5003;31961;52.416;-0.732;2022-07-26T13:24:35;3;3;
46240;PMS5003;31961;52.416;-0.732;2022-07-26T13:27:04;3;3;
46240;PMS5003;31961;52.416;-0.732;2022-07-26T13:29:33;4;4;
46240;PMS5003;31961;52.416;-0.732;2022-07-26T13:32:00;3;3;
46240;PMS5003;31961;52.416;-0.732;2022-07-26T13:34:28;4;4;
46240;PMS5003;31961;52.416;-0.732;2022-07-26T13:36:55;4;4;
46240;PMS5003;31961;52.416;-0.732;2022-07-26T13:39:24;4;4;
46240;PMS5003;31961;52.416;-0.732;2022-07-26T13:41:51;4;3;
46240;PMS5003;31961;52.416;-0.732;2022-07-26T13:44:20;5;5;
46240;PMS5003;31961;52.416;-0.732;2022-07-26T13:46:47;4;4;
46240;PMS5003;31961;52.416;-0.732;2022-07-26T13:49:15;5;5;
46240;PMS5003;31961;52.416;-0.732;2022-07-26T13:51:42;5;5;
46240;PMS5003;31961;52.416;-0.732;2022-07-26T13:54:10;3;3;
46240;PMS5003;31961;52.416;-0.732;2022-07-26T13:56:38;4;4;
46240;PMS5003;31961;52.416;-0.732;2022-07-26T13:59:06;5;5;
46240;PMS5003;31961;52.416;-0.732;2022-07-26T14:01:33;4;4;
46240;PMS5003;31961;52.416;-0.732;2022-07-26T14:04:01;4;4;
46240;PMS5003;31961;52.416;-0.732;2022-07-26T14:06:29;4;4;
46240;PMS5003;31961;52.416;-0.732;2022-07-26T14:08:57;4;4;
46240;PMS5003;31961;52.416;-0.732;2022-07-26T14:11:24;3;3;
46240;PMS5003;31961;52.416;-0.732;2022-07-26T14:13:52;3;2;
46240;PMS5003;31961;52.416;-0.732;2022-07-26T14:16:20;6;4;
46240;PMS5003;31961;52.416;-0.732;2022-07-26T14:18:47;4;4;
46240;PMS5003;31961;52.416;-0.732;2022-07-26T14:21:15;5;5;
46240;PMS5003;31961;52.416;-0.732;2022-07-26T14:23:41;5;4;
46240;PMS5003;31961;52.416;-0.732;2022-07-26T14:26:09;5;5;
46240;PMS5003;31961;52.416;-0.732;2022-07-26T14:28:36;4;4;
46240;PMS5003;31961;52.416;-0.732;2022-07-26T14:31:04;6;4;
46240;PMS5003;31961;52.416;-0.732;2022-07-26T14:33:32;5;5;
46240;PMS5003;31961;52.416;-0.732;2022-07-26T14:35:59;5;5;
46240;PMS5003;31961;52.416;-0.732;2022-07-26T14:38:27;4;4;
46240;PMS5003;31961;52.416;-0.732;2022-07-26T14:40:54;6;5;
46240;PMS5003;31961;52.416;-0.732;2022-07-26T14:43:22;6;4;
46240;PMS5003;31961;52.416;-0.732;2022-07-26T14:45:49;5;5;
46240;PMS5003;31961;52.416;-0.732;2022-07-26T14:48:17;7;6;
46240;PMS5003;31961;52.416;-0.732;2022-07-26T14:50:44;5;5;
46240;PMS5003;31961;52.416;-0.732;2022-07-26T14:53:12;6;5;
46240;PMS5003;31961;52.416;-0.732;2022-07-26T14:55:41;5;4;
46240;PMS5003;31961;52.416;-0.732;2022-07-26T14:58:08;6;4;
46240;PMS5003;31961;52.416;-0.732;2022-07-26T15:00:36;5;5;
46240;PMS5003;31961;52.416;-0.732;2022-07-26T15:03:03;3;3;
46240;PMS5003;31961;52.416;-0.732;2022-07-26T15:05:31;4;4;
46240;PMS5003;31961;52.416;-0.732;2022-07-26T15:07:57;5;5;
46240;PMS5003;31961;52.416;-0.732;2022-07-26T15:10:26;4;4;
46240;PMS5003;31961;52.416;-0.732;2022-07-26T15:12:53;6;6;
46240;PMS5003;31961;52.416;-0.732;2022-07-26T15:15:21;6;6;
46240;PMS5003;31961;52.416;-0.732;2022-07-26T15:17:49;6;6;
46240;PMS5003;31961;52.416;-0.732;2022-07-26T15:20:16;6;5;
46240;PMS5003;31961;52.416;-0.732;2022-07-26T15:22:44;5;5;
46240;PMS5003;31961;52.416;-0.732;2022-07-26T15:25:11;7;7;
46240;PMS5003;31961;52.416;-0.732;2022-07-26T15:27:39;5;5;
46240;PMS5003;31961;52.416;-0.732;2022-07-26T15:30:07;6;6;
46240;PMS5003;31961;52.416;-0.732;2022-07-26T15:32:35;5;5;
46240;PMS5003;31961;52.416;-0.732;2022-07-26T15:35:03;6;5;
46240;PMS5003;31961;52.416;-0.732;2022-07-26T15:37:31;5;5;
46240;PMS5003;31961;52.416;-0.732;2022-07-26T15:39:59;6;5;
46240;PMS5003;31961;52.416;-0.732;2022-07-26T15:42:28;5;4;
46240;PMS5003;31961;52.416;-0.732;2022-07-26T15:44:56;8;5;
46240;PMS5003;31961;52.416;-0.732;2022-07-26T15:47:24;7;5;
46240;PMS5003;31961;52.416;-0.732;2022-07-26T15:49:51;7;6;
46240;PMS5003;31961;52.416;-0.732;2022-07-26T15:52:19;6;5;
46240;PMS5003;31961;52.416;-0.732;2022-07-26T15:54:46;8;6;
46240;PMS5003;31961;52.416;-0.732;2022-07-26T15:57:14;5;5;
46240;PMS5003;31961;52.416;-0.732;2022-07-26T15:59:41;6;5;
46240;PMS5003;31961;52.416;-0.732;2022-07-26T16:02:09;5;5;
46240;PMS5003;31961;52.416;-0.732;2022-07-26T16:04:37;7;7;
46240;PMS5003;31961;52.416;-0.732;2022-07-26T16:07:04;7;6;
46240;PMS5003;31961;52.416;-0.732;2022-07-26T16:09:32;9;8;
46240;PMS5003;31961;52.416;-0.732;2022-07-26T16:11:59;7;7;
46240;PMS5003;31961;52.416;-0.732;2022-07-26T16:14:27;7;7;
46240;PMS5003;31961;52.416;-0.732;2022-07-26T16:16:55;7;7;
46240;PMS5003;31961;52.416;-0.732;2022-07-26T16:19:22;7;7;
46240;PMS5003;31961;52.416;-0.732;2022-07-26T16:21:50;7;7;
46240;PMS5003;31961;52.416;-0.732;2022-07-26T16:24:17;8;7;
46240;PMS5003;31961;52.416;-0.732;2022-07-26T16:26:45;10;8;
46240;PMS5003;31961;52.416;-0.732;2022-07-26T16:29:12;5;5;
46240;PMS5003;31961;52.416;-0.732;2022-07-26T16:31:40;5;5;
46240;PMS5003;31961;52.416;-0.732;2022-07-26T16:34:08;6;6;
46240;PMS5003;31961;52.416;-0.732;2022-07-26T16:36:35;8;8;
46240;PMS5003;31961;52.416;-0.732;2022-07-26T16:39:03;6;6;
46240;PMS5003;31961;52.416;-0.732;2022-07-26T16:41:31;9;8;
46240;PMS5003;31961;52.416;-0.732;2022-07-26T16:43:58;8;7;